sensor_id;sensor_type;location;lat;lon;timestamp;temperature;humidity
33077;DHT22;38790;51.964;5.924;2022-11-20T00:01:13;-2.20;99.90
33077;DHT22;38790;51.964;5.924;2022-11-20T00:03:40;-2.20;99.90
33077;DHT22;38790;51.964;5.924;2022-11-20T00:06:10;-2.20;99.90
33077;DHT22;38790;51.964;5.924;2022-11-20T00:08:37;-2.30;99.90
33077;DHT22;38790;51.964;5.924;2022-11-20T00:11:09;-2.30;99.90
33077;DHT22;38790;51.964;5.924;2022-11-20T00:13:35;-2.30;99.90
33077;DHT22;38790;51.964;5.924;2022-11-20T00:16:03;-2.30;99.90
33077;DHT22;38790;51.964;5.924;2022-11-20T00:18:30;-2.30;99.90
33077;DHT22;38790;51.964;5.924;2022-11-20T00:21:23;-2.30;99.90
33077;DHT22;38790;51.964;5.924;2022-11-20T00:23:51;-2.40;99.90
33077;DHT22;38790;51.964;5.924;2022-11-20T00:26:19;-2.40;99.90
33077;DHT22;38790;51.964;5.924;2022-11-20T00:28:50;-2.40;99.90
33077;DHT22;38790;51.964;5.924;2022-11-20T00:31:17;-2.40;99.90
33077;DHT22;38790;51.964;5.924;2022-11-20T00:33:44;-2.50;99.90
33077;DHT22;38790;51.964;5.924;2022-11-20T00:36:12;-2.60;99.90
33077;DHT22;38790;51.964;5.924;2022-11-20T00:38:39;-2.60;99.90
33077;DHT22;38790;51.964;5.924;2022-11-20T00:41:07;-2.60;99.90
33077;DHT22;38790;51.964;5.924;2022-11-20T00:43:34;-2.60;99.90
33077;DHT22;38790;51.964;5.924;2022-11-20T00:46:03;-2.60;99.90
33077;DHT22;38790;51.964;5.924;2022-11-20T00:48:30;-2.70;99.90
33077;DHT22;38790;51.964;5.924;2022-11-20T00:50:57;-2.70;99.90
33077;DHT22;38790;51.964;5.924;2022-11-20T00:53:23;-2.60;99.90
33077;DHT22;38790;51.964;5.924;2022-11-20T00:56:03;-2.60;99.90
33077;DHT22;38790;51.964;5.924;2022-11-20T00:58:32;-2.60;99.90
33077;DHT22;38790;51.964;5.924;2022-11-20T01:01:07;-2.60;99.90
33077;DHT22;38790;51.964;5.924;2022-11-20T01:03:41;-2.60;99.90
33077;DHT22;38790;51.964;5.924;2022-11-20T01:06:12;-2.60;99.90
33077;DHT22;38790;51.964;5.924;2022-11-20T01:08:39;-2.60;99.90
33077;DHT22;38790;51.964;5.924;2022-11-20T01:11:08;-2.70;99.90
33077;DHT22;38790;51.964;5.924;2022-11-20T01:13:35;-2.70;99.90
33077;DHT22;38790;51.964;5.924;2022-11-20T01:16:35;-2.70;99.90
33077;DHT22;38790;51.964;5.924;2022-11-20T01:19:04;-2.70;99.90
33077;DHT22;38790;51.964;5.924;2022-11-20T01:21:36;-2.60;99.90
33077;DHT22;38790;51.964;5.924;2022-11-20T01:24:05;-2.60;99.90
33077;DHT22;38790;51.964;5.924;2022-11-20T01:26:34;-2.60;99.90
33077;DHT22;38790;51.964;5.924;2022-11-20T01:29:00;-2.50;99.90
33077;DHT22;38790;51.964;5.924;2022-11-20T01:31:29;-2.50;99.90
33077;DHT22;38790;51.964;5.924;2022-11-20T01:33:58;-2.50;99.90
33077;DHT22;38790;51.964;5.924;2022-11-20T01:36:26;-2.50;99.90
33077;DHT22;38790;51.964;5.924;2022-11-20T01:38:55;-2.50;99.90
33077;DHT22;38790;51.964;5.924;2022-11-20T01:41:23;-2.60;99.90
33077;DHT22;38790;51.964;5.924;2022-11-20T01:44:10;-2.60;99.90
33077;DHT22;38790;51.964;5.924;2022-11-20T01:46:40;-2.50;99.90
33077;DHT22;38790;51.964;5.924;2022-11-20T01:51:49;-2.50;99.90
33077;DHT22;38790;51.964;5.924;2022-11-20T01:54:21;-2.50;99.90
33077;DHT22;38790;51.964;5.924;2022-11-20T01:56:51;-2.50;99.90
33077;DHT22;38790;51.964;5.924;2022-11-20T01:59:19;-2.50;99.90
33077;DHT22;38790;51.964;5.924;2022-11-20T02:01:45;-2.50;99.90
33077;DHT22;38790;51.964;5.924;2022-11-20T02:04:13;-2.50;99.90
33077;DHT22;38790;51.964;5.924;2022-11-20T02:06:50;-2.50;99.90
33077;DHT22;38790;51.964;5.924;2022-11-20T02:09:16;-2.50;99.90
33077;DHT22;38790;51.964;5.924;2022-11-20T02:11:43;-2.50;99.90
33077;DHT22;38790;51.964;5.924;2022-11-20T02:14:10;-2.60;99.90
33077;DHT22;38790;51.964;5.924;2022-11-20T02:16:45;-2.60;99.90
33077;DHT22;38790;51.964;5.924;2022-11-20T02:24:23;-2.80;99.90
33077;DHT22;38790;51.964;5.924;2022-11-20T02:29:26;-2.90;99.90
33077;DHT22;38790;51.964;5.924;2022-11-20T02:31:55;-2.90;99.90
33077;DHT22;38790;51.964;5.924;2022-11-20T02:34:22;-3.00;99.90
33077;DHT22;38790;51.964;5.924;2022-11-20T02:36:49;-3.00;99.90
33077;DHT22;38790;51.964;5.924;2022-11-20T02:39:16;-3.00;99.90
33077;DHT22;38790;51.964;5.924;2022-11-20T02:41:43;-3.00;99.90
33077;DHT22;38790;51.964;5.924;2022-11-20T02:44:09;-3.00;99.90
33077;DHT22;38790;51.964;5.924;2022-11-20T02:46:36;-3.10;99.90
33077;DHT22;38790;51.964;5.924;2022-11-20T02:49:03;-3.10;99.90
33077;DHT22;38790;51.964;5.924;2022-11-20T02:51:29;-3.10;99.90
33077;DHT22;38790;51.964;5.924;2022-11-20T02:53:56;-3.10;99.90
33077;DHT22;38790;51.964;5.924;2022-11-20T02:56:22;-3.20;99.90
33077;DHT22;38790;51.964;5.924;2022-11-20T02:58:48;-3.20;99.90
33077;DHT22;38790;51.964;5.924;2022-11-20T03:01:14;-3.20;99.90
33077;DHT22;38790;51.964;5.924;2022-11-20T03:03:40;-3.20;99.90
33077;DHT22;38790;51.964;5.924;2022-11-20T03:06:07;-3.20;99.90
33077;DHT22;38790;51.964;5.924;2022-11-20T03:08:33;-3.20;99.90
33077;DHT22;38790;51.964;5.924;2022-11-20T03:11:05;-3.20;99.90
33077;DHT22;38790;51.964;5.924;2022-11-20T03:13:32;-3.20;99.90
33077;DHT22;38790;51.964;5.924;2022-11-20T03:15:58;-3.20;99.90
33077;DHT22;38790;51.964;5.924;2022-11-20T03:18:29;-3.20;99.90
33077;DHT22;38790;51.964;5.924;2022-11-20T03:20:59;-3.30;99.90
33077;DHT22;38790;51.964;5.924;2022-11-20T03:23:25;-3.30;99.90
33077;DHT22;38790;51.964;5.924;2022-11-20T03:25:51;-3.30;99.90
33077;DHT22;38790;51.964;5.924;2022-11-20T03:28:17;-3.20;99.90
33077;DHT22;38790;51.964;5.924;2022-11-20T03:30:43;-3.20;99.90
33077;DHT22;38790;51.964;5.924;2022-11-20T03:33:10;-3.30;99.90
33077;DHT22;38790;51.964;5.924;2022-11-20T03:35:36;-3.30;99.90
33077;DHT22;38790;51.964;5.924;2022-11-20T03:38:02;-3.40;99.90
33077;DHT22;38790;51.964;5.924;2022-11-20T03:40:28;-3.40;99.90
33077;DHT22;38790;51.964;5.924;2022-11-20T03:42:54;-3.40;99.90
33077;DHT22;38790;51.964;5.924;2022-11-20T03:45:20;-3.40;99.90
33077;DHT22;38790;51.964;5.924;2022-11-20T03:47:47;-3.50;99.90
33077;DHT22;38790;51.964;5.924;2022-11-20T03:50:13;-3.30;99.90
33077;DHT22;38790;51.964;5.924;2022-11-20T03:52:40;-3.30;99.90
33077;DHT22;38790;51.964;5.924;2022-11-20T03:55:07;-3.30;99.90
33077;DHT22;38790;51.964;5.924;2022-11-20T03:57:33;-3.40;99.90
33077;DHT22;38790;51.964;5.924;2022-11-20T03:59:59;-3.40;99.90
33077;DHT22;38790;51.964;5.924;2022-11-20T04:02:25;-3.40;99.90
33077;DHT22;38790;51.964;5.924;2022-11-20T04:04:51;-3.40;99.90
33077;DHT22;38790;51.964;5.924;2022-11-20T04:07:17;-3.40;99.90
33077;DHT22;38790;51.964;5.924;2022-11-20T04:09:43;-3.40;99.90
33077;DHT22;38790;51.964;5.924;2022-11-20T04:12:10;-3.40;99.90
33077;DHT22;38790;51.964;5.924;2022-11-20T04:14:36;-3.40;99.90
33077;DHT22;38790;51.964;5.924;2022-11-20T04:17:03;-3.50;99.90
33077;DHT22;38790;51.964;5.924;2022-11-20T04:19:29;-3.50;99.90
33077;DHT22;38790;51.964;5.924;2022-11-20T04:21:55;-3.50;99.90
33077;DHT22;38790;51.964;5.924;2022-11-20T04:24:22;-3.50;99.90
33077;DHT22;38790;51.964;5.924;2022-11-20T04:26:48;-3.60;99.90
33077;DHT22;38790;51.964;5.924;2022-11-20T04:29:14;-3.60;99.90
33077;DHT22;38790;51.964;5.924;2022-11-20T04:31:40;-3.60;99.90
33077;DHT22;38790;51.964;5.924;2022-11-20T04:34:07;-3.60;99.90
33077;DHT22;38790;51.964;5.924;2022-11-20T04:36:34;-3.60;99.90
33077;DHT22;38790;51.964;5.924;2022-11-20T04:39:03;-3.60;99.90
33077;DHT22;38790;51.964;5.924;2022-11-20T04:41:34;-3.60;99.90
33077;DHT22;38790;51.964;5.924;2022-11-20T04:44:02;-3.60;99.90
33077;DHT22;38790;51.964;5.924;2022-11-20T04:46:35;-3.60;99.90
33077;DHT22;38790;51.964;5.924;2022-11-20T04:49:01;-3.70;99.90
33077;DHT22;38790;51.964;5.924;2022-11-20T04:51:28;-3.60;99.90
33077;DHT22;38790;51.964;5.924;2022-11-20T04:53:54;-3.70;99.90
33077;DHT22;38790;51.964;5.924;2022-11-20T04:56:20;-3.70;99.90
33077;DHT22;38790;51.964;5.924;2022-11-20T04:58:46;-3.70;99.90
33077;DHT22;38790;51.964;5.924;2022-11-20T05:01:15;-3.70;99.90
33077;DHT22;38790;51.964;5.924;2022-11-20T05:03:42;-3.80;99.90
33077;DHT22;38790;51.964;5.924;2022-11-20T05:06:09;-3.80;99.90
33077;DHT22;38790;51.964;5.924;2022-11-20T05:08:36;-3.80;99.90
33077;DHT22;38790;51.964;5.924;2022-11-20T05:11:11;-3.80;99.90
33077;DHT22;38790;51.964;5.924;2022-11-20T05:13:38;-3.80;99.90
33077;DHT22;38790;51.964;5.924;2022-11-20T05:16:22;-3.90;99.90
33077;DHT22;38790;51.964;5.924;2022-11-20T05:18:49;-3.90;99.90
33077;DHT22;38790;51.964;5.924;2022-11-20T05:21:16;-3.90;99.90
33077;DHT22;38790;51.964;5.924;2022-11-20T05:23:43;-3.90;99.90
33077;DHT22;38790;51.964;5.924;2022-11-20T05:26:18;-3.90;99.90
33077;DHT22;38790;51.964;5.924;2022-11-20T05:28:45;-4.00;99.90
33077;DHT22;38790;51.964;5.924;2022-11-20T05:31:14;-4.00;99.90
33077;DHT22;38790;51.964;5.924;2022-11-20T05:33:43;-4.10;99.90
33077;DHT22;38790;51.964;5.924;2022-11-20T05:36:10;-4.10;99.90
33077;DHT22;38790;51.964;5.924;2022-11-20T05:38:37;-4.10;99.90
33077;DHT22;38790;51.964;5.924;2022-11-20T05:41:11;-4.00;99.90
33077;DHT22;38790;51.964;5.924;2022-11-20T05:43:39;-4.10;99.90
33077;DHT22;38790;51.964;5.924;2022-11-20T05:46:07;-4.10;99.90
33077;DHT22;38790;51.964;5.924;2022-11-20T05:48:34;-4.10;99.90
33077;DHT22;38790;51.964;5.924;2022-11-20T05:51:03;-4.10;99.90
33077;DHT22;38790;51.964;5.924;2022-11-20T05:53:30;-4.10;99.90
33077;DHT22;38790;51.964;5.924;2022-11-20T05:58:28;-4.10;99.90
33077;DHT22;38790;51.964;5.924;2022-11-20T06:00:54;-4.10;99.90
33077;DHT22;38790;51.964;5.924;2022-11-20T06:03:20;-4.10;99.90
33077;DHT22;38790;51.964;5.924;2022-11-20T06:05:47;-4.10;99.90
33077;DHT22;38790;51.964;5.924;2022-11-20T06:08:13;-4.10;99.90
33077;DHT22;38790;51.964;5.924;2022-11-20T06:10:39;-4.10;99.90
33077;DHT22;38790;51.964;5.924;2022-11-20T06:13:05;-4.10;99.90
33077;DHT22;38790;51.964;5.924;2022-11-20T06:15:31;-4.10;99.90
33077;DHT22;38790;51.964;5.924;2022-11-20T06:17:57;-4.20;99.90
33077;DHT22;38790;51.964;5.924;2022-11-20T06:20:24;-4.10;99.90
33077;DHT22;38790;51.964;5.924;2022-11-20T06:22:50;-4.20;99.90
33077;DHT22;38790;51.964;5.924;2022-11-20T06:25:16;-4.10;99.90
33077;DHT22;38790;51.964;5.924;2022-11-20T06:27:43;-4.20;99.90
33077;DHT22;38790;51.964;5.924;2022-11-20T06:30:09;-4.20;99.90
33077;DHT22;38790;51.964;5.924;2022-11-20T06:32:35;-4.20;99.90
33077;DHT22;38790;51.964;5.924;2022-11-20T06:35:02;-4.30;99.90
33077;DHT22;38790;51.964;5.924;2022-11-20T06:37:28;-4.30;99.90
33077;DHT22;38790;51.964;5.924;2022-11-20T06:39:54;-4.30;99.90
33077;DHT22;38790;51.964;5.924;2022-11-20T06:42:20;-4.20;99.90
33077;DHT22;38790;51.964;5.924;2022-11-20T06:44:46;-4.20;99.90
33077;DHT22;38790;51.964;5.924;2022-11-20T06:47:12;-4.30;99.90
33077;DHT22;38790;51.964;5.924;2022-11-20T06:49:38;-4.20;99.90
33077;DHT22;38790;51.964;5.924;2022-11-20T06:52:04;-4.20;99.90
33077;DHT22;38790;51.964;5.924;2022-11-20T06:54:30;-4.20;99.90
33077;DHT22;38790;51.964;5.924;2022-11-20T06:56:56;-4.20;99.90
33077;DHT22;38790;51.964;5.924;2022-11-20T06:59:23;-4.20;99.90
33077;DHT22;38790;51.964;5.924;2022-11-20T07:01:49;-4.20;99.90
33077;DHT22;38790;51.964;5.924;2022-11-20T07:04:15;-4.20;99.90
33077;DHT22;38790;51.964;5.924;2022-11-20T07:06:41;-4.20;99.90
33077;DHT22;38790;51.964;5.924;2022-11-20T07:09:07;-4.20;99.90
33077;DHT22;38790;51.964;5.924;2022-11-20T07:11:33;-4.20;99.90
33077;DHT22;38790;51.964;5.924;2022-11-20T07:13:59;-4.20;99.90
33077;DHT22;38790;51.964;5.924;2022-11-20T07:16:25;-4.20;99.90
33077;DHT22;38790;51.964;5.924;2022-11-20T07:18:51;-4.20;99.90
33077;DHT22;38790;51.964;5.924;2022-11-20T07:21:18;-4.20;99.90
33077;DHT22;38790;51.964;5.924;2022-11-20T07:23:44;-4.20;99.90
33077;DHT22;38790;51.964;5.924;2022-11-20T07:26:11;-4.20;99.90
33077;DHT22;38790;51.964;5.924;2022-11-20T07:28:37;-4.10;99.90
33077;DHT22;38790;51.964;5.924;2022-11-20T07:31:04;-4.10;99.90
33077;DHT22;38790;51.964;5.924;2022-11-20T07:33:32;-4.00;99.90
33077;DHT22;38790;51.964;5.924;2022-11-20T07:35:59;-4.00;99.90
33077;DHT22;38790;51.964;5.924;2022-11-20T07:38:25;-4.00;99.90
33077;DHT22;38790;51.964;5.924;2022-11-20T07:40:56;-4.00;99.90
33077;DHT22;38790;51.964;5.924;2022-11-20T07:43:24;-4.00;99.90
33077;DHT22;38790;51.964;5.924;2022-11-20T07:45:51;-4.00;99.90
33077;DHT22;38790;51.964;5.924;2022-11-20T07:48:17;-4.00;99.90
33077;DHT22;38790;51.964;5.924;2022-11-20T07:50:43;-3.90;99.90
33077;DHT22;38790;51.964;5.924;2022-11-20T07:53:09;-3.90;99.90
33077;DHT22;38790;51.964;5.924;2022-11-20T07:55:35;-3.90;99.90
33077;DHT22;38790;51.964;5.924;2022-11-20T07:58:01;-3.80;99.90
33077;DHT22;38790;51.964;5.924;2022-11-20T08:00:28;-3.60;99.90
33077;DHT22;38790;51.964;5.924;2022-11-20T08:02:54;-3.60;99.90
33077;DHT22;38790;51.964;5.924;2022-11-20T08:05:20;-3.50;99.90
33077;DHT22;38790;51.964;5.924;2022-11-20T08:07:46;-3.50;99.90
33077;DHT22;38790;51.964;5.924;2022-11-20T08:10:14;-3.40;99.90
33077;DHT22;38790;51.964;5.924;2022-11-20T08:12:49;-3.30;99.90
33077;DHT22;38790;51.964;5.924;2022-11-20T08:15:35;-3.20;99.90
33077;DHT22;38790;51.964;5.924;2022-11-20T08:18:03;-3.10;99.90
33077;DHT22;38790;51.964;5.924;2022-11-20T08:20:30;-3.00;99.90
33077;DHT22;38790;51.964;5.924;2022-11-20T08:23:00;-3.00;99.90
33077;DHT22;38790;51.964;5.924;2022-11-20T08:25:29;-3.00;99.90
33077;DHT22;38790;51.964;5.924;2022-11-20T08:27:59;-3.00;99.90
33077;DHT22;38790;51.964;5.924;2022-11-20T08:30:25;-2.90;99.90
33077;DHT22;38790;51.964;5.924;2022-11-20T08:32:52;-2.90;99.90
33077;DHT22;38790;51.964;5.924;2022-11-20T08:35:18;-2.80;99.90
33077;DHT22;38790;51.964;5.924;2022-11-20T08:37:48;-2.70;99.90
33077;DHT22;38790;51.964;5.924;2022-11-20T08:40:15;-2.60;99.90
33077;DHT22;38790;51.964;5.924;2022-11-20T08:42:50;-2.50;99.90
33077;DHT22;38790;51.964;5.924;2022-11-20T08:45:18;-2.50;99.90
33077;DHT22;38790;51.964;5.924;2022-11-20T08:47:45;-2.50;99.90
33077;DHT22;38790;51.964;5.924;2022-11-20T08:50:13;-2.50;99.90
33077;DHT22;38790;51.964;5.924;2022-11-20T08:52:40;-2.50;99.90
33077;DHT22;38790;51.964;5.924;2022-11-20T08:55:07;-2.40;99.90
33077;DHT22;38790;51.964;5.924;2022-11-20T08:57:34;-2.30;99.90
33077;DHT22;38790;51.964;5.924;2022-11-20T09:00:01;-2.20;99.90
33077;DHT22;38790;51.964;5.924;2022-11-20T09:02:27;-2.10;99.90
33077;DHT22;38790;51.964;5.924;2022-11-20T09:04:53;-2.10;99.90
33077;DHT22;38790;51.964;5.924;2022-11-20T09:07:20;-2.10;99.90
33077;DHT22;38790;51.964;5.924;2022-11-20T09:09:46;-2.10;99.90
33077;DHT22;38790;51.964;5.924;2022-11-20T09:12:12;-2.00;99.90
33077;DHT22;38790;51.964;5.924;2022-11-20T09:14:38;-2.00;99.90
33077;DHT22;38790;51.964;5.924;2022-11-20T09:17:04;-1.90;99.90
33077;DHT22;38790;51.964;5.924;2022-11-20T09:19:30;-1.80;99.90
33077;DHT22;38790;51.964;5.924;2022-11-20T09:21:56;-1.70;99.90
33077;DHT22;38790;51.964;5.924;2022-11-20T09:24:23;-1.60;99.90
33077;DHT22;38790;51.964;5.924;2022-11-20T09:26:49;-1.40;99.90
33077;DHT22;38790;51.964;5.924;2022-11-20T09:29:15;-1.40;99.90
33077;DHT22;38790;51.964;5.924;2022-11-20T09:31:41;-1.40;99.90
33077;DHT22;38790;51.964;5.924;2022-11-20T09:34:07;-1.30;99.90
33077;DHT22;38790;51.964;5.924;2022-11-20T09:36:33;-1.30;99.90
33077;DHT22;38790;51.964;5.924;2022-11-20T09:38:59;-1.30;99.90
33077;DHT22;38790;51.964;5.924;2022-11-20T09:47:49;-1.30;99.90
33077;DHT22;38790;51.964;5.924;2022-11-20T09:56:09;-1.10;99.90
33077;DHT22;38790;51.964;5.924;2022-11-20T09:58:50;-1.10;99.90
33077;DHT22;38790;51.964;5.924;2022-11-20T10:01:19;-1.10;99.90
33077;DHT22;38790;51.964;5.924;2022-11-20T10:06:20;-1.00;99.90
33077;DHT22;38790;51.964;5.924;2022-11-20T10:14:52;-0.70;99.90
33077;DHT22;38790;51.964;5.924;2022-11-20T10:25:20;-0.50;99.90
33077;DHT22;38790;51.964;5.924;2022-11-20T10:30:43;-0.40;99.90
33077;DHT22;38790;51.964;5.924;2022-11-20T10:33:21;-0.20;99.90
33077;DHT22;38790;51.964;5.924;2022-11-20T10:38:37;-0.20;99.90
33077;DHT22;38790;51.964;5.924;2022-11-20T10:41:06;-0.20;99.90
33077;DHT22;38790;51.964;5.924;2022-11-20T10:44:04;-0.10;99.90
33077;DHT22;38790;51.964;5.924;2022-11-20T10:46:44;0.10;99.90
33077;DHT22;38790;51.964;5.924;2022-11-20T10:49:19;0.30;99.90
33077;DHT22;38790;51.964;5.924;2022-11-20T10:51:50;0.40;99.90
33077;DHT22;38790;51.964;5.924;2022-11-20T10:57:17;0.50;99.90
33077;DHT22;38790;51.964;5.924;2022-11-20T10:59:58;0.40;99.90
33077;DHT22;38790;51.964;5.924;2022-11-20T11:07:53;0.20;99.90
33077;DHT22;38790;51.964;5.924;2022-11-20T11:10:35;0.20;99.90
33077;DHT22;38790;51.964;5.924;2022-11-20T11:13:05;0.20;99.90
33077;DHT22;38790;51.964;5.924;2022-11-20T11:15:40;0.10;99.90
33077;DHT22;38790;51.964;5.924;2022-11-20T11:18:11;0.20;99.90
33077;DHT22;38790;51.964;5.924;2022-11-20T11:20:37;0.30;99.90
33077;DHT22;38790;51.964;5.924;2022-11-20T11:23:04;0.40;99.90
33077;DHT22;38790;51.964;5.924;2022-11-20T11:25:34;0.50;99.90
33077;DHT22;38790;51.964;5.924;2022-11-20T11:30:44;0.80;99.90
33077;DHT22;38790;51.964;5.924;2022-11-20T11:33:18;0.90;99.90
33077;DHT22;38790;51.964;5.924;2022-11-20T11:35:53;1.00;99.90
33077;DHT22;38790;51.964;5.924;2022-11-20T11:38:26;1.10;99.90
33077;DHT22;38790;51.964;5.924;2022-11-20T11:40:55;1.20;99.90
33077;DHT22;38790;51.964;5.924;2022-11-20T11:43:26;1.20;99.90
33077;DHT22;38790;51.964;5.924;2022-11-20T11:48:58;1.30;99.90
33077;DHT22;38790;51.964;5.924;2022-11-20T11:51:30;1.30;99.90
33077;DHT22;38790;51.964;5.924;2022-11-20T11:53:58;1.30;99.90
33077;DHT22;38790;51.964;5.924;2022-11-20T11:56:25;1.40;99.90
33077;DHT22;38790;51.964;5.924;2022-11-20T11:58:52;1.40;99.90
33077;DHT22;38790;51.964;5.924;2022-11-20T12:04:21;1.30;99.90
33077;DHT22;38790;51.964;5.924;2022-11-20T12:07:12;1.40;99.90
33077;DHT22;38790;51.964;5.924;2022-11-20T12:09:46;1.40;99.90
33077;DHT22;38790;51.964;5.924;2022-11-20T12:12:21;1.40;99.90
33077;DHT22;38790;51.964;5.924;2022-11-20T12:14:49;1.40;99.90
33077;DHT22;38790;51.964;5.924;2022-11-20T12:17:18;1.40;99.90
33077;DHT22;38790;51.964;5.924;2022-11-20T12:19:44;1.30;99.90
33077;DHT22;38790;51.964;5.924;2022-11-20T12:22:32;1.20;99.90
33077;DHT22;38790;51.964;5.924;2022-11-20T12:25:14;1.30;99.90
33077;DHT22;38790;51.964;5.924;2022-11-20T12:34:01;1.50;99.90
33077;DHT22;38790;51.964;5.924;2022-11-20T12:36:42;1.50;99.90
33077;DHT22;38790;51.964;5.924;2022-11-20T12:39:35;1.50;99.90
33077;DHT22;38790;51.964;5.924;2022-11-20T13:02:12;1.60;99.90
33077;DHT22;38790;51.964;5.924;2022-11-20T13:07:35;1.60;99.90
33077;DHT22;38790;51.964;5.924;2022-11-20T13:13:22;1.50;99.90
33077;DHT22;38790;51.964;5.924;2022-11-20T13:18:41;1.50;99.90
33077;DHT22;38790;51.964;5.924;2022-11-20T13:21:21;1.40;99.90
33077;DHT22;38790;51.964;5.924;2022-11-20T13:23:48;1.40;99.90
33077;DHT22;38790;51.964;5.924;2022-11-20T13:26:20;1.40;99.90
33077;DHT22;38790;51.964;5.924;2022-11-20T13:29:17;1.40;99.90
33077;DHT22;38790;51.964;5.924;2022-11-20T13:31:46;1.50;99.90
33077;DHT22;38790;51.964;5.924;2022-11-20T13:34:24;1.50;99.90
33077;DHT22;38790;51.964;5.924;2022-11-20T13:36:53;1.50;99.90
33077;DHT22;38790;51.964;5.924;2022-11-20T13:39:34;1.60;99.90
33077;DHT22;38790;51.964;5.924;2022-11-20T13:42:03;1.60;99.90
33077;DHT22;38790;51.964;5.924;2022-11-20T13:44:54;1.60;99.90
33077;DHT22;38790;51.964;5.924;2022-11-20T13:47:27;1.60;99.90
33077;DHT22;38790;51.964;5.924;2022-11-20T13:49:55;1.60;99.90
33077;DHT22;38790;51.964;5.924;2022-11-20T13:55:28;1.70;99.90
33077;DHT22;38790;51.964;5.924;2022-11-20T13:58:16;1.70;99.90
33077;DHT22;38790;51.964;5.924;2022-11-20T14:01:11;1.70;99.90
33077;DHT22;38790;51.964;5.924;2022-11-20T14:03:40;1.70;99.90
33077;DHT22;38790;51.964;5.924;2022-11-20T14:08:49;1.60;99.90
33077;DHT22;38790;51.964;5.924;2022-11-20T14:11:19;1.50;99.90
33077;DHT22;38790;51.964;5.924;2022-11-20T14:14:18;1.60;99.90
33077;DHT22;38790;51.964;5.924;2022-11-20T14:16:45;1.70;99.90
33077;DHT22;38790;51.964;5.924;2022-11-20T14:19:27;1.70;99.90
33077;DHT22;38790;51.964;5.924;2022-11-20T14:22:16;1.70;99.90
33077;DHT22;38790;51.964;5.924;2022-11-20T14:24:45;1.80;99.90
33077;DHT22;38790;51.964;5.924;2022-11-20T14:27:19;1.80;99.90
33077;DHT22;38790;51.964;5.924;2022-11-20T14:29:47;1.80;99.90
33077;DHT22;38790;51.964;5.924;2022-11-20T14:32:19;1.80;99.90
33077;DHT22;38790;51.964;5.924;2022-11-20T14:34:49;1.80;99.90
33077;DHT22;38790;51.964;5.924;2022-11-20T14:37:23;1.90;99.90
33077;DHT22;38790;51.964;5.924;2022-11-20T14:39:55;1.90;99.90
33077;DHT22;38790;51.964;5.924;2022-11-20T14:42:24;1.80;99.90
33077;DHT22;38790;51.964;5.924;2022-11-20T14:44:54;1.80;99.90
33077;DHT22;38790;51.964;5.924;2022-11-20T14:47:29;1.70;99.90
33077;DHT22;38790;51.964;5.924;2022-11-20T14:49:57;1.70;99.90
33077;DHT22;38790;51.964;5.924;2022-11-20T14:52:27;1.80;99.90
33077;DHT22;38790;51.964;5.924;2022-11-20T14:55:03;1.80;99.90
33077;DHT22;38790;51.964;5.924;2022-11-20T14:57:33;1.80;99.90
33077;DHT22;38790;51.964;5.924;2022-11-20T15:02:47;1.80;99.90
33077;DHT22;38790;51.964;5.924;2022-11-20T15:05:15;1.80;99.90
33077;DHT22;38790;51.964;5.924;2022-11-20T15:07:44;1.80;99.90
33077;DHT22;38790;51.964;5.924;2022-11-20T15:10:24;1.80;99.90
33077;DHT22;38790;51.964;5.924;2022-11-20T15:12:56;1.90;99.90
33077;DHT22;38790;51.964;5.924;2022-11-20T15:17:51;1.90;99.90
33077;DHT22;38790;51.964;5.924;2022-11-20T15:20:18;1.90;99.90
33077;DHT22;38790;51.964;5.924;2022-11-20T15:22:44;1.90;99.90
33077;DHT22;38790;51.964;5.924;2022-11-20T15:25:15;1.90;99.90
33077;DHT22;38790;51.964;5.924;2022-11-20T15:27:43;1.90;99.90
33077;DHT22;38790;51.964;5.924;2022-11-20T15:30:20;2.00;99.90
33077;DHT22;38790;51.964;5.924;2022-11-20T15:32:47;2.00;99.90
33077;DHT22;38790;51.964;5.924;2022-11-20T15:35:14;2.00;99.90
33077;DHT22;38790;51.964;5.924;2022-11-20T15:37:41;1.90;99.90
33077;DHT22;38790;51.964;5.924;2022-11-20T15:40:08;2.00;99.90
33077;DHT22;38790;51.964;5.924;2022-11-20T15:42:37;2.00;99.90
33077;DHT22;38790;51.964;5.924;2022-11-20T15:45:03;1.90;99.90
33077;DHT22;38790;51.964;5.924;2022-11-20T15:47:32;2.00;99.90
33077;DHT22;38790;51.964;5.924;2022-11-20T15:49:59;2.00;99.90
33077;DHT22;38790;51.964;5.924;2022-11-20T15:52:26;2.00;99.90
33077;DHT22;38790;51.964;5.924;2022-11-20T15:54:52;2.00;99.90
33077;DHT22;38790;51.964;5.924;2022-11-20T15:57:18;2.00;99.90
33077;DHT22;38790;51.964;5.924;2022-11-20T15:59:44;2.00;99.90
33077;DHT22;38790;51.964;5.924;2022-11-20T16:02:11;2.00;99.90
33077;DHT22;38790;51.964;5.924;2022-11-20T16:04:38;2.00;99.90
33077;DHT22;38790;51.964;5.924;2022-11-20T16:07:04;2.10;99.90
33077;DHT22;38790;51.964;5.924;2022-11-20T16:09:30;2.10;99.90
33077;DHT22;38790;51.964;5.924;2022-11-20T16:11:57;2.10;99.90
33077;DHT22;38790;51.964;5.924;2022-11-20T16:14:26;2.10;99.90
33077;DHT22;38790;51.964;5.924;2022-11-20T16:17:11;2.10;99.90
33077;DHT22;38790;51.964;5.924;2022-11-20T16:19:37;2.10;99.90
33077;DHT22;38790;51.964;5.924;2022-11-20T16:22:04;2.10;99.90
33077;DHT22;38790;51.964;5.924;2022-11-20T16:24:30;2.10;99.90
33077;DHT22;38790;51.964;5.924;2022-11-20T16:26:57;2.10;99.90
33077;DHT22;38790;51.964;5.924;2022-11-20T16:29:23;2.10;99.90
33077;DHT22;38790;51.964;5.924;2022-11-20T16:31:49;2.20;99.90
33077;DHT22;38790;51.964;5.924;2022-11-20T16:34:16;2.20;99.90
33077;DHT22;38790;51.964;5.924;2022-11-20T16:36:43;2.20;99.90
33077;DHT22;38790;51.964;5.924;2022-11-20T16:39:11;2.20;99.90
33077;DHT22;38790;51.964;5.924;2022-11-20T16:41:37;2.20;99.90
33077;DHT22;38790;51.964;5.924;2022-11-20T16:44:08;2.30;99.90
33077;DHT22;38790;51.964;5.924;2022-11-20T16:46:35;2.30;99.90
33077;DHT22;38790;51.964;5.924;2022-11-20T16:49:12;2.30;99.90
33077;DHT22;38790;51.964;5.924;2022-11-20T16:51:38;2.30;99.90
33077;DHT22;38790;51.964;5.924;2022-11-20T16:54:06;2.30;99.90
33077;DHT22;38790;51.964;5.924;2022-11-20T16:56:32;2.30;99.90
33077;DHT22;38790;51.964;5.924;2022-11-20T16:59:00;2.30;99.90
33077;DHT22;38790;51.964;5.924;2022-11-20T17:01:28;2.30;99.90
33077;DHT22;38790;51.964;5.924;2022-11-20T17:03:59;2.30;99.90
33077;DHT22;38790;51.964;5.924;2022-11-20T17:06:37;2.40;99.90
33077;DHT22;38790;51.964;5.924;2022-11-20T17:09:05;2.30;99.90
33077;DHT22;38790;51.964;5.924;2022-11-20T17:11:34;2.30;99.90
33077;DHT22;38790;51.964;5.924;2022-11-20T17:14:01;2.30;99.90
33077;DHT22;38790;51.964;5.924;2022-11-20T17:16:29;2.30;99.90
33077;DHT22;38790;51.964;5.924;2022-11-20T17:18:57;2.30;99.90
33077;DHT22;38790;51.964;5.924;2022-11-20T17:21:24;2.30;99.90
33077;DHT22;38790;51.964;5.924;2022-11-20T17:23:50;2.40;99.90
33077;DHT22;38790;51.964;5.924;2022-11-20T17:26:18;2.40;99.90
33077;DHT22;38790;51.964;5.924;2022-11-20T17:28:56;2.40;99.90
33077;DHT22;38790;51.964;5.924;2022-11-20T17:31:23;2.40;99.90
33077;DHT22;38790;51.964;5.924;2022-11-20T17:33:49;2.40;99.90
33077;DHT22;38790;51.964;5.924;2022-11-20T17:36:16;2.30;99.90
33077;DHT22;38790;51.964;5.924;2022-11-20T17:38:43;2.40;99.90
33077;DHT22;38790;51.964;5.924;2022-11-20T17:41:11;2.40;99.90